createdAt,value
2022-10-02T01:52:08.036Z,14.15
2022-10-02T01:56:58.352Z,14.24
2022-10-02T02:00:08.705Z,14.24
2022-10-02T02:04:27.479Z,14.22
2022-10-02T02:16:22.856Z,14.17
2022-10-02T02:24:11.883Z,14.37
2022-10-02T02:24:47.105Z,14.12
2022-10-02T02:31:49.491Z,14.12
2022-10-02T02:44:43.090Z,14.31
2022-10-02T02:50:42.244Z,14.13
2022-10-02T02:54:28.462Z,13.91
2022-10-02T03:01:27.265Z,13.94
2022-10-02T03:04:32.648Z,13.96
2022-10-02T03:07:57.757Z,14.18
2022-10-02T03:11:05.515Z,14.17
2022-10-02T03:15:18.306Z,14.02
2022-10-02T03:19:13.314Z,13.83
2022-10-02T03:22:47.063Z,13.96
2022-10-02T03:26:10.586Z,13.72
2022-10-02T03:28:56.503Z,13.96
2022-10-02T03:31:34.216Z,13.98
2022-10-02T03:34:19.085Z,14.00
2022-10-02T03:36:54.182Z,14.22
2022-10-02T03:39:38.817Z,14.12
2022-10-02T03:50:51.718Z,14.02
2022-10-02T03:55:28.839Z,14.02
2022-10-02T03:58:46.025Z,14.05
2022-10-02T04:02:10.805Z,13.93
2022-10-02T04:08:05.662Z,13.94
2022-10-02T04:10:22.184Z,14.04
2022-10-02T04:13:12.977Z,14.03
2022-10-02T04:16:19.523Z,13.99
2022-10-02T04:19:14.753Z,14.08
2022-10-02T04:21:56.258Z,14.08
2022-10-02T04:25:20.959Z,14.08
2022-10-02T04:32:21.431Z,14.11
2022-10-02T04:36:26.769Z,14.00
2022-10-02T04:41:10.476Z,14.11
2022-10-02T04:44:18.151Z,13.95
2022-10-02T04:47:00.715Z,14.06
2022-10-02T04:49:58.889Z,14.00
2022-10-02T04:53:18.958Z,14.10
2022-10-02T04:56:12.673Z,14.07
2022-10-02T04:59:07.120Z,14.08
2022-10-02T05:01:55.679Z,14.05
2022-10-02T05:04:53.060Z,13.89
2022-10-02T05:07:42.584Z,13.95
2022-10-02T05:10:33.269Z,14.08
2022-10-02T05:13:19.286Z,14.16
2022-10-02T05:16:08.883Z,14.13
2022-10-02T05:19:02.719Z,14.04
2022-10-02T05:21:49.359Z,13.94
2022-10-02T05:24:36.635Z,14.03
2022-10-02T05:27:28.902Z,13.96
2022-10-02T05:30:13.556Z,14.02
2022-10-02T05:33:08.845Z,14.11
2022-10-02T05:35:53.577Z,14.05
2022-10-02T05:38:40.282Z,13.97
2022-10-02T05:41:19.362Z,13.99
2022-10-02T05:44:02.692Z,14.07
2022-10-02T05:46:41.207Z,14.05
2022-10-02T05:49:19.400Z,14.13
2022-10-02T05:51:59.637Z,14.24
2022-10-02T05:54:43.964Z,14.24
2022-10-02T05:57:22.247Z,14.30
2022-10-02T06:00:02.078Z,14.32
2022-10-02T06:02:51.111Z,14.20
2022-10-02T06:05:27.124Z,14.20
2022-10-02T06:08:03.919Z,14.19
2022-10-02T06:10:42.601Z,14.06
2022-10-02T06:13:24.193Z,14.15
2022-10-02T06:16:06.025Z,14.20
2022-10-02T06:18:43.032Z,14.14
2022-10-02T06:21:25.980Z,14.19
2022-10-02T06:24:01.473Z,14.14
2022-10-02T06:26:43.431Z,14.11
2022-10-02T06:29:27.050Z,14.04
2022-10-02T06:32:15.261Z,14.06
2022-10-02T06:34:48.279Z,14.09
2022-10-02T06:37:37.522Z,14.01
2022-10-02T06:40:46.817Z,14.08
2022-10-02T06:43:35.505Z,14.13
2022-10-02T06:46:22.954Z,14.23
2022-10-02T06:49:00.502Z,14.24
2022-10-02T06:51:41.059Z,14.25
2022-10-02T06:54:31.059Z,14.34
2022-10-02T06:57:21.606Z,14.35
2022-10-02T07:00:09.237Z,14.18
2022-10-02T07:03:17.152Z,13.98
2022-10-02T07:06:25.738Z,14.12
2022-10-02T07:09:27.010Z,14.10
2022-10-02T07:12:11.126Z,14.24
2022-10-02T07:15:03.546Z,14.35
2022-10-02T07:17:49.357Z,14.38
2022-10-02T07:20:34.252Z,14.45
2022-10-02T07:23:28.517Z,14.39
2022-10-02T07:26:16.644Z,14.54
2022-10-02T07:28:58.711Z,14.61
2022-10-02T07:31:46.785Z,14.45
2022-10-02T07:34:31.022Z,14.60
2022-10-02T07:37:15.864Z,14.45
2022-10-02T07:40:03.200Z,14.55
2022-10-02T07:42:54.791Z,14.61
2022-10-02T07:45:38.567Z,14.73
2022-10-02T07:48:38.061Z,14.75
2022-10-02T07:51:40.539Z,14.74
2022-10-02T07:54:37.441Z,14.72
2022-10-02T07:57:26.513Z,14.61
2022-10-02T08:00:04.169Z,14.69
2022-10-02T08:02:51.375Z,14.74
2022-10-02T08:05:26.134Z,14.81
2022-10-02T08:08:03.582Z,14.78
2022-10-02T08:10:40.116Z,14.75
2022-10-02T08:13:20.694Z,14.57
2022-10-02T08:15:56.565Z,14.64
2022-10-02T08:18:35.885Z,14.79
2022-10-02T08:21:14.076Z,14.75
2022-10-02T08:23:50.946Z,14.82
2022-10-02T08:26:35.189Z,14.72
2022-10-02T08:29:15.855Z,14.68
2022-10-02T08:31:52.278Z,14.78
2022-10-02T08:34:26.196Z,14.91
2022-10-02T08:37:10.469Z,14.76
2022-10-02T08:40:06.196Z,14.62
2022-10-02T08:43:08.783Z,14.88
2022-10-02T08:46:27.264Z,14.85
2022-10-02T08:49:25.571Z,14.88
2022-10-02T08:52:47.943Z,14.81
2022-10-02T08:55:39.475Z,14.83
2022-10-02T08:58:51.732Z,14.87
2022-10-02T09:01:51.275Z,14.83
2022-10-02T09:04:49.845Z,14.84
2022-10-02T09:07:54.376Z,14.85
2022-10-02T09:10:49.284Z,15.03
2022-10-02T09:13:55.336Z,14.97
2022-10-02T09:16:40.439Z,14.96
2022-10-02T09:19:19.283Z,15.02
2022-10-02T09:21:56.434Z,14.98
2022-10-02T09:24:56.175Z,15.00
2022-10-02T09:28:05.413Z,15.13
2022-10-02T09:31:12.426Z,15.26
2022-10-02T09:34:13.105Z,15.40
2022-10-02T09:37:24.903Z,15.46
2022-10-02T09:40:35.547Z,15.51
2022-10-02T09:43:39.777Z,15.68
2022-10-02T09:46:53.017Z,15.72
2022-10-02T09:50:04.352Z,15.81
2022-10-02T09:53:18.184Z,15.82
2022-10-02T09:56:20.572Z,15.82
2022-10-02T09:59:32.764Z,15.67
2022-10-02T10:02:25.559Z,15.70
2022-10-02T10:05:26.615Z,15.80
2022-10-02T10:11:16.980Z,15.94
2022-10-02T10:14:20.149Z,15.91
2022-10-02T10:17:26.106Z,16.07
2022-10-02T10:20:38.949Z,16.29
2022-10-02T10:23:36.397Z,16.37
2022-10-02T10:26:34.672Z,16.62
2022-10-02T10:29:45.383Z,16.70
2022-10-02T10:32:41.690Z,16.71
2022-10-02T10:35:34.836Z,16.71
2022-10-02T10:38:37.928Z,16.77
2022-10-02T10:41:39.648Z,16.68
2022-10-02T10:44:39.153Z,16.73
2022-10-02T10:47:41.158Z,16.69
2022-10-02T10:50:44.547Z,16.66
2022-10-02T10:54:05.565Z,16.55
2022-10-02T10:56:42.772Z,16.87
2022-10-02T10:59:58.348Z,16.88
2022-10-02T11:03:22.218Z,16.83
2022-10-02T11:06:23.000Z,16.69
2022-10-02T11:09:40.440Z,16.77
2022-10-02T11:13:09.853Z,16.73
2022-10-02T11:16:09.354Z,16.67
2022-10-02T11:19:01.375Z,16.62
2022-10-02T11:21:55.521Z,16.57
2022-10-02T11:24:44.749Z,16.48
2022-10-02T11:27:34.219Z,16.45
2022-10-02T11:30:20.682Z,16.58
2022-10-02T11:33:25.008Z,16.56
2022-10-02T11:36:42.612Z,16.61
2022-10-02T11:39:44.760Z,16.63
2022-10-02T11:42:39.712Z,16.81
2022-10-02T11:45:30.207Z,17.14
2022-10-02T11:48:40.870Z,17.28
2022-10-02T11:51:27.642Z,17.47
2022-10-02T11:54:10.304Z,17.63
2022-10-02T11:57:02.005Z,17.49
2022-10-02T12:00:06.092Z,17.38
2022-10-02T12:02:57.017Z,17.51
2022-10-02T12:05:55.837Z,17.69
2022-10-02T12:08:41.247Z,17.89
2022-10-02T12:11:19.330Z,17.84
2022-10-02T12:14:15.696Z,17.84
2022-10-02T12:17:02.574Z,17.70
2022-10-02T12:20:08.880Z,17.98
2022-10-02T12:23:14.474Z,17.98
2022-10-02T12:26:15.745Z,17.80
2022-10-02T12:28:57.418Z,17.68
2022-10-02T12:31:35.058Z,17.84
2022-10-02T12:34:24.508Z,17.71
2022-10-02T12:37:06.213Z,17.76
2022-10-02T12:39:50.551Z,17.86
2022-10-02T12:42:49.446Z,18.03
2022-10-02T12:45:36.675Z,18.12
2022-10-02T12:48:19.500Z,18.35
2022-10-02T12:51:16.271Z,18.34
2022-10-02T12:54:20.449Z,18.23
2022-10-02T12:57:41.152Z,18.07
2022-10-02T13:00:17.034Z,17.84
2022-10-02T13:03:32.578Z,17.76
2022-10-02T13:06:37.326Z,17.71
2022-10-02T13:09:21.317Z,17.56
2022-10-02T13:12:08.290Z,17.50
2022-10-02T13:15:22.466Z,17.47
2022-10-02T13:18:05.456Z,17.41
2022-10-02T13:20:45.585Z,17.45
2022-10-02T13:23:26.572Z,17.17
2022-10-02T13:26:16.823Z,17.31
2022-10-02T13:29:15.191Z,17.37
2022-10-02T13:32:00.940Z,17.42
2022-10-02T13:34:49.135Z,17.32
2022-10-02T13:37:36.542Z,17.30
2022-10-02T13:40:22.753Z,17.20
2022-10-02T13:43:23.131Z,17.13
2022-10-02T13:46:03.478Z,17.04
2022-10-02T13:48:54.982Z,17.02
2022-10-02T13:51:36.017Z,16.96
2022-10-02T13:54:41.144Z,16.91
2022-10-02T13:57:28.630Z,16.83
2022-10-02T14:00:10.217Z,16.78
2022-10-02T14:03:06.743Z,16.79
2022-10-02T14:05:48.993Z,16.76
2022-10-02T14:08:33.903Z,16.71
2022-10-02T14:11:17.225Z,16.61
2022-10-02T14:14:13.103Z,16.53
2022-10-02T14:16:59.202Z,16.63
2022-10-02T14:20:00.395Z,16.68
2022-10-02T14:22:49.143Z,16.79
2022-10-02T14:25:33.747Z,16.73
2022-10-02T14:28:33.373Z,16.68
2022-10-02T14:31:39.023Z,16.72
2022-10-02T14:34:38.137Z,16.71
2022-10-02T14:37:44.745Z,16.68
2022-10-02T14:40:19.103Z,16.64
2022-10-02T14:43:19.029Z,16.53
2022-10-02T14:46:04.211Z,16.47
2022-10-02T14:48:47.827Z,16.49
2022-10-02T14:51:32.389Z,16.44
2022-10-02T14:54:30.041Z,16.36
2022-10-02T14:57:24.102Z,16.28
2022-10-02T15:00:19.037Z,16.28
2022-10-02T15:03:28.457Z,16.29
2022-10-02T15:06:15.794Z,16.22
2022-10-02T15:08:52.768Z,16.25
2022-10-02T15:11:31.710Z,16.17
2022-10-02T15:14:12.250Z,16.05
2022-10-02T15:17:05.421Z,16.12
2022-10-02T15:19:47.734Z,16.12
2022-10-02T15:22:23.802Z,16.14
2022-10-02T15:25:07.949Z,16.13
2022-10-02T15:27:46.948Z,16.18
2022-10-02T15:30:23.159Z,15.97
2022-10-02T15:33:21.385Z,15.79
2022-10-02T15:36:09.847Z,15.86
2022-10-02T15:39:20.338Z,15.96
2022-10-02T15:42:04.959Z,15.79
2022-10-02T15:44:59.041Z,15.76
2022-10-02T15:47:56.238Z,15.69
2022-10-02T15:50:59.169Z,15.77
2022-10-02T15:53:51.515Z,15.75
2022-10-02T15:56:41.140Z,15.66
2022-10-02T15:59:31.055Z,15.56
2022-10-02T16:02:20.142Z,15.57
2022-10-02T16:05:09.683Z,15.53
2022-10-02T16:08:07.265Z,15.40
2022-10-02T16:11:01.994Z,15.51
2022-10-02T16:13:48.905Z,15.50
2022-10-02T16:17:06.135Z,15.33
2022-10-02T16:20:10.519Z,15.30
2022-10-02T16:22:58.570Z,15.35
2022-10-02T16:25:49.351Z,15.31
2022-10-02T16:28:39.520Z,15.32
2022-10-02T16:31:26.377Z,15.44
2022-10-02T16:34:04.648Z,15.38
2022-10-02T16:41:25.670Z,15.29
2022-10-02T16:44:09.454Z,15.21
2022-10-02T16:46:49.044Z,15.24
2022-10-02T16:49:30.584Z,15.20
2022-10-02T16:52:11.667Z,15.22
2022-10-02T16:54:49.542Z,15.09
2022-10-02T16:57:29.647Z,14.98
2022-10-02T17:00:27.020Z,14.96
2022-10-02T17:03:08.882Z,14.86
2022-10-02T17:05:50.521Z,14.95
2022-10-02T17:08:32.216Z,14.94
2022-10-02T17:11:18.177Z,14.95
2022-10-02T17:14:07.083Z,14.89
2022-10-02T17:16:46.341Z,14.91
2022-10-02T17:19:26.448Z,14.94
2022-10-02T17:22:03.493Z,15.07
2022-10-02T17:24:42.927Z,15.10
2022-10-02T17:31:25.622Z,14.85
2022-10-02T17:34:02.639Z,14.81
2022-10-02T17:36:39.940Z,14.68
2022-10-02T18:36:16.813Z,14.12
2022-10-02T18:38:59.630Z,14.12
2022-10-02T18:41:50.327Z,14.05
2022-10-02T18:44:54.614Z,13.95
2022-10-02T18:47:43.268Z,14.18
2022-10-02T18:50:40.183Z,14.17
2022-10-02T18:53:38.756Z,14.14
2022-10-02T18:56:12.287Z,14.09
2022-10-02T18:59:10.630Z,14.12
2022-10-02T19:02:11.579Z,13.98
2022-10-02T19:05:50.083Z,14.07
2022-10-02T19:12:34.041Z,13.76
2022-10-02T19:15:21.982Z,13.67
2022-10-02T19:18:05.163Z,13.92
2022-10-02T19:20:48.331Z,14.03
2022-10-02T19:23:29.119Z,14.06
2022-10-02T19:26:07.192Z,14.01
2022-10-02T19:28:46.577Z,13.97
2022-10-02T19:31:25.134Z,13.88
2022-10-02T19:34:02.280Z,13.79
2022-10-02T19:36:42.022Z,13.55
2022-10-02T19:39:21.160Z,13.66
2022-10-02T19:41:57.865Z,13.78
2022-10-02T19:44:34.429Z,13.65
2022-10-02T19:47:17.211Z,13.66
2022-10-02T19:49:55.603Z,13.81
2022-10-02T19:52:41.629Z,13.83
2022-10-02T19:55:28.202Z,13.70
2022-10-02T19:58:10.183Z,13.41
2022-10-02T20:00:43.247Z,13.35
2022-10-02T20:03:21.082Z,13.49
2022-10-02T20:05:58.397Z,13.59
2022-10-02T20:08:33.092Z,13.56
2022-10-02T20:11:12.131Z,13.45
2022-10-02T20:13:50.808Z,13.51
2022-10-02T20:16:43.742Z,13.49
2022-10-02T20:19:19.077Z,13.52
2022-10-02T20:21:55.326Z,13.53
2022-10-02T20:24:36.524Z,13.53
2022-10-02T20:27:14.397Z,13.49
2022-10-02T20:29:50.548Z,13.41
2022-10-02T20:32:28.143Z,13.53
2022-10-02T20:35:05.666Z,13.48
2022-10-02T20:37:38.194Z,13.44
2022-10-02T20:40:17.684Z,13.39
2022-10-02T20:42:59.082Z,13.42
2022-10-02T20:45:37.611Z,13.46
2022-10-02T20:49:09.357Z,13.39
2022-10-02T20:52:01.921Z,13.46
2022-10-02T20:54:54.248Z,13.51
2022-10-02T20:58:07.016Z,13.44
2022-10-02T21:00:53.142Z,13.46
2022-10-02T21:03:43.202Z,13.41
2022-10-02T21:06:40.203Z,13.37
2022-10-02T21:09:54.719Z,13.49
2022-10-02T21:12:51.664Z,13.54
2022-10-02T21:15:53.635Z,13.56
2022-10-02T21:18:58.322Z,13.67
2022-10-02T21:21:58.408Z,13.58
2022-10-02T21:25:10.018Z,13.65
2022-10-02T21:28:13.528Z,13.61
2022-10-02T21:30:57.611Z,13.59
2022-10-02T21:33:38.094Z,13.66
2022-10-02T21:36:25.145Z,13.72
2022-10-02T21:39:30.835Z,13.77
2022-10-02T21:42:18.662Z,13.77
2022-10-02T21:45:26.078Z,13.66
2022-10-02T21:48:30.888Z,13.72
2022-10-02T21:51:39.329Z,13.64
2022-10-02T21:54:53.567Z,13.62
2022-10-02T21:57:58.753Z,13.66
2022-10-02T22:00:31.824Z,13.62
2022-10-02T22:03:37.497Z,13.66
2022-10-02T22:06:33.932Z,13.55
2022-10-02T22:09:24.587Z,13.53
2022-10-02T22:12:13.480Z,13.36
2022-10-02T22:14:51.149Z,13.54
2022-10-02T22:17:33.214Z,13.53
2022-10-02T22:20:21.669Z,13.49
2022-10-02T22:23:10.519Z,13.51
2022-10-02T22:25:58.058Z,13.46
2022-10-02T22:28:43.927Z,13.49
2022-10-02T22:31:40.895Z,13.53
2022-10-02T22:34:29.195Z,13.32
2022-10-02T22:37:15.936Z,13.26
2022-10-02T22:39:54.926Z,13.20
2022-10-02T22:42:35.124Z,13.21
2022-10-02T22:45:20.653Z,13.25
2022-10-02T22:48:00.896Z,13.13
2022-10-02T22:50:44.796Z,13.24
2022-10-02T22:53:21.249Z,13.27
2022-10-02T22:55:55.520Z,13.26
2022-10-02T22:58:35.833Z,13.32
2022-10-02T23:01:18.190Z,13.30
2022-10-02T23:03:55.535Z,13.26
2022-10-02T23:06:32.825Z,13.17
2022-10-02T23:09:13.560Z,13.08
2022-10-02T23:11:55.267Z,13.22
2022-10-02T23:14:32.071Z,13.26
2022-10-02T23:17:11.418Z,13.26
2022-10-02T23:19:48.189Z,13.31
2022-10-02T23:22:28.643Z,13.31
2022-10-02T23:25:10.452Z,13.32
2022-10-02T23:27:49.143Z,13.29
2022-10-02T23:30:23.334Z,13.23
2022-10-02T23:33:04.239Z,13.22
2022-10-02T23:35:47.849Z,13.17
2022-10-02T23:38:25.554Z,13.22
2022-10-02T23:41:24.617Z,13.21
2022-10-02T23:44:11.562Z,13.24
2022-10-02T23:47:01.748Z,13.13
2022-10-02T23:49:39.071Z,13.18
2022-10-02T23:52:36.402Z,13.17
2022-10-02T23:55:25.034Z,13.20
2022-10-02T23:58:16.730Z,13.20
